Sumaq Queen — 3EGP3 — position and weather

sailwx.info

Track history (hours):
 
Tides and Currents Weather Stations Pressure Air Temp Water Temp Dewpoint Dewpoint Depression Visibility Wind Speed Wind Dir Waves Ship Positions

Sumaq Queen

Last reported at 2017-Aug-26 07:39 UTC. Time now 2017-Sep-24 10:45 UTC.
Position S 27°57' E 154°02'.
Warning: this ship's position is 29 days out of date.

Length 183 m; draft 11.1 m.

Type: Cargo ship. MMSI: 374593000.

Date/timePositionNaut miles runAvg speedWind from/ knotsBaromVisibWave heightAir tempDewpointWater temp
2017-Aug-26 07:39S 27°57' E 154°02'413.0
2017-Aug-26 07:22S 28°01' E 154°01'613.0
2017-Aug-26 06:56S 28°07' E 154°00'512.7
2017-Aug-26 06:30S 28°12' E 153°59'612.6
2017-Aug-26 06:00S 28°18' E 153°58'812.8
2017-Aug-26 05:21S 28°26' E 153°57'24712.7
2017-Aug-25 09:53S 32°25' E 152°44'612.8
2017-Aug-25 09:27S 32°30' E 152°42'512.5
2017-Aug-25 09:00S 32°34' E 152°37'612.3
2017-Aug-25 08:30S 32°38' E 152°32'612.2
2017-Aug-25 08:00S 32°42' E 152°26'611.8
2017-Aug-25 07:30S 32°45' E 152°20'611.8
2017-Aug-25 07:00S 32°49' E 152°15'611.6
2017-Aug-25 06:30S 32°52' E 152°09'611.7
2017-Aug-25 06:00S 32°55' E 152°03'510.6
2017-Aug-25 05:30S 32°58' E 151°58'510.3
2017-Aug-25 05:00S 32°57' E 151°52'4 7.6
2017-Aug-25 04:30S 32°55' E 151°48'2 3.3
2017-Aug-25 04:00S 32°54' E 151°46'0 0.1
2017-Aug-25 03:29S 32°54' E 151°46'0 0.0
2017-Aug-25 02:59S 32°54' E 151°46'0 0.0
2017-Aug-25 02:29S 32°54' E 151°46'0 0.0
2017-Aug-25 01:59S 32°54' E 151°46'0 0.0
2017-Aug-25 01:29S 32°54' E 151°46'0 0.0
2017-Aug-25 00:59S 32°54' E 151°46'0 0.0
2017-Aug-25 00:29S 32°54' E 151°46'0 0.0
2017-Aug-24 23:59S 32°54' E 151°46'0 0.0
2017-Aug-24 23:29S 32°54' E 151°46'0 0.0
2017-Aug-24 22:59S 32°54' E 151°46'0 0.0
2017-Aug-24 22:29S 32°54' E 151°46'0 0.0
2017-Aug-24 21:59S 32°54' E 151°46'0 0.0
2017-Aug-24 21:20S 32°54' E 151°46'0 0.0
2017-Aug-24 20:59S 32°54' E 151°46'0 0.0
2017-Aug-24 20:29S 32°54' E 151°46'0 0.0
2017-Aug-24 19:59S 32°54' E 151°46'0 0.0
2017-Aug-24 19:29S 32°54' E 151°46'0 0.0
2017-Aug-24 18:59S 32°54' E 151°46'0 0.0
2017-Aug-24 18:29S 32°54' E 151°46'0 0.0
2017-Aug-24 17:59S 32°54' E 151°46'0 0.0
2017-Aug-24 17:29S 32°54' E 151°46'0 0.0
2017-Aug-24 16:59S 32°54' E 151°46'0 0.0
2017-Aug-24 16:29S 32°54' E 151°46'0 0.0
2017-Aug-24 15:59S 32°54' E 151°46'0 0.0
2017-Aug-24 15:29S 32°54' E 151°46'0 0.0
2017-Aug-24 14:59S 32°54' E 151°46'0 0.0
2017-Aug-24 14:29S 32°54' E 151°46'0 0.0
2017-Aug-24 13:59S 32°54' E 151°46'0 0.0
2017-Aug-24 13:29S 32°54' E 151°46'0 0.0
2017-Aug-24 12:59S 32°54' E 151°46'0 0.0
2017-Aug-24 12:26S 32°54' E 151°46'0 0.0
2017-Aug-24 11:56S 32°54' E 151°46'0 0.0
2017-Aug-24 11:29S 32°54' E 151°46'0 0.0
2017-Aug-24 10:53S 32°54' E 151°46'0 0.0
2017-Aug-24 10:29S 32°54' E 151°46'0 0.0
2017-Aug-24 09:53S 32°54' E 151°46'0 0.0
2017-Aug-24 09:23S 32°54' E 151°46'0 0.0
2017-Aug-24 08:59S 32°54' E 151°46'0 0.0
2017-Aug-24 08:29S 32°54' E 151°46'0 0.0
2017-Aug-24 07:56S 32°54' E 151°46'0 0.0
2017-Aug-24 07:29S 32°54' E 151°46'0 0.0
2017-Aug-24 06:59S 32°54' E 151°46'0 0.0
2017-Aug-24 06:29S 32°54' E 151°46'0 0.0
2017-Aug-24 05:59S 32°54' E 151°46'0 0.0
2017-Aug-24 05:29S 32°54' E 151°46'0 0.0
2017-Aug-24 04:59S 32°54' E 151°46'0 0.0
2017-Aug-24 04:26S 32°54' E 151°46'0 0.0
2017-Aug-24 03:59S 32°54' E 151°46'0 0.0
2017-Aug-24 03:29S 32°54' E 151°46'0 0.0
2017-Aug-24 02:59S 32°54' E 151°46'0 0.0
2017-Aug-24 02:29S 32°54' E 151°46'0 0.0
2017-Aug-24 01:59S 32°54' E 151°46'0 0.0
2017-Aug-24 01:29S 32°54' E 151°46'0 0.0
2017-Aug-24 00:53S 32°54' E 151°46'0 0.0
2017-Aug-24 00:30S 32°54' E 151°46'0 0.3
2017-Aug-24 00:00S 32°54' E 151°46'2 4.6
2017-Aug-23 23:30S 32°55' E 151°49'5 9.6
2017-Aug-23 23:00S 32°59' E 151°52'3 5.5
2017-Aug-23 22:30S 33°01' E 151°52'3 5.5
2017-Aug-23 22:00S 33°04' E 151°52'2 4.4
2017-Aug-23 21:30S 33°05' E 151°49'2 4.8
2017-Aug-23 21:00S 33°06' E 151°47'2 3.9
2017-Aug-23 20:30S 33°06' E 151°44'0 0.7
2017-Aug-23 19:56S 33°06' E 151°44'0 0.0
2017-Aug-23 15:14S 33°07' E 151°44'0 0.0
2017-Aug-23 05:50S 33°07' E 151°44'0 0.0
2017-Aug-22 23:38S 33°07' E 151°44'0 0.0
2017-Aug-22 22:11S 33°07' E 151°44'0 0.0
2017-Aug-22 21:53S 33°07' E 151°44'0 0.0
2017-Aug-22 21:29S 33°07' E 151°44'0 0.0
2017-Aug-22 20:59S 33°07' E 151°44'0 0.0
2017-Aug-22 20:26S 33°07' E 151°44'0 0.0
2017-Aug-22 17:47S 33°07' E 151°44'0 0.0
2017-Aug-22 17:26S 33°07' E 151°44'0 0.0
2017-Aug-22 16:53S 33°07' E 151°44'0 0.0
2017-Aug-22 16:23S 33°07' E 151°44'0 0.0
2017-Aug-22 00:14S 33°06' E 151°44'0 0.0
2017-Aug-21 23:53S 33°06' E 151°44'0 0.0
2017-Aug-21 23:11S 33°06' E 151°44'0 0.0
2017-Aug-21 22:56S 33°06' E 151°44'0 0.1
2017-Aug-21 22:23S 33°06' E 151°44'0 0.0
2017-Aug-21 21:47S 33°06' E 151°44'0 0.0
2017-Aug-21 21:29S 33°06' E 151°44'0 0.0
2017-Aug-21 20:53S 33°06' E 151°44'0 0.0
2017-Aug-21 20:26S 33°06' E 151°44'0 0.0
2017-Aug-21 19:59S 33°06' E 151°44'0 0.0
2017-Aug-21 19:29S 33°06' E 151°44'0 0.0
2017-Aug-21 18:59S 33°06' E 151°44'0 0.0
2017-Aug-21 18:29S 33°06' E 151°44'0 0.1
2017-Aug-21 17:56S 33°06' E 151°44'0 0.1
2017-Aug-21 17:23S 33°06' E 151°44'0 0.0
2017-Aug-21 16:59S 33°06' E 151°44'0 0.0
2017-Aug-21 16:29S 33°06' E 151°44'0 0.1
2017-Aug-21 15:59S 33°06' E 151°44'0 0.0
2017-Aug-21 15:29S 33°06' E 151°44'0 0.0
2017-Aug-21 14:59S 33°06' E 151°44'0 0.1
2017-Aug-21 14:29S 33°06' E 151°44'0 0.1
2017-Aug-21 13:59S 33°06' E 151°44'0 0.0
2017-Aug-21 13:29S 33°06' E 151°44'0 0.0
2017-Aug-21 12:59S 33°07' E 151°44'0 0.0
2017-Aug-21 12:29S 33°07' E 151°44'0 0.0
2017-Aug-21 11:59S 33°07' E 151°44'0 0.0
2017-Aug-21 11:29S 33°07' E 151°44'0 0.0
2017-Aug-21 10:59S 33°07' E 151°44'0 0.0
2017-Aug-21 10:29S 33°07' E 151°44'0 0.0
2017-Aug-21 09:59S 33°07' E 151°44'0 0.0
2017-Aug-21 09:29S 33°07' E 151°44'0 0.0
2017-Aug-21 08:59S 33°07' E 151°44'0 0.0
2017-Aug-21 05:26S 33°07' E 151°44'0 0.0
2017-Aug-21 04:02S 33°06' E 151°44'0 0.0
2017-Aug-21 03:59S 33°06' E 151°44'0 0.0
2017-Aug-21 03:26S 33°06' E 151°44'1 0.7
2017-Aug-21 01:44S 33°06' E 151°45'2 5.8
2017-Aug-21 01:28S 33°05' E 151°47'3 5.8
2017-Aug-21 01:01S 33°03' E 151°49'2 3.5
2017-Aug-21 00:31S 33°02' E 151°50'4 8.5
2017-Aug-21 00:00S 33°02' E 151°55'5 9.6
2017-Aug-20 23:31S 33°03' E 152°01'1 1.7
2017-Aug-20 23:00S 33°02' E 152°02'1 1.9
2017-Aug-20 22:31S 33°02' E 152°03'1 2.0
2017-Aug-20 22:01S 33°02' E 152°04'1 1.8
2017-Aug-20 21:31S 33°02' E 152°05'1 1.8
2017-Aug-20 21:00S 33°02' E 152°06'1 1.7
2017-Aug-20 20:31S 33°02' E 152°07'1 1.9
2017-Aug-20 20:01S 33°02' E 152°08'3 6.0
2017-Aug-20 19:31S 32°59' E 152°10'4 8.0
2017-Aug-20 19:00S 32°56' E 152°13'0 0.9
2017-Aug-20 18:31S 32°56' E 152°13'0 1.0
2017-Aug-20 18:00S 32°56' E 152°14'0 0.9
2017-Aug-20 17:30S 32°56' E 152°14'0 0.8
2017-Aug-20 17:01S 32°56' E 152°15'0 1.0
2017-Aug-20 16:31S 32°57' E 152°15'0 0.9
2017-Aug-20 16:00S 32°57' E 152°16'0 0.8
2017-Aug-20 15:30S 32°57' E 152°16'0 0.9
2017-Aug-20 15:01S 32°57' E 152°17'1 1.3
2017-Aug-20 14:31S 32°58' E 152°17'0 1.0
2017-Aug-20 14:01S 32°58' E 152°16'1 1.0
2017-Aug-20 13:31S 32°59' E 152°16'1 1.1
2017-Aug-20 13:01S 32°60' E 152°16'1 1.1
2017-Aug-20 12:31S 33°00' E 152°16'1 1.1
2017-Aug-20 12:01S 33°01' E 152°16'1 1.2
2017-Aug-20 11:31S 33°01' E 152°16'1 1.1
2017-Aug-20 11:01S 33°02' E 152°16'2 3.1
2017-Aug-20 10:30S 33°02' E 152°14'3 6.9
2017-Aug-20 10:01S 32°58' E 152°15'510.1
2017-Aug-20 09:31S 32°54' E 152°19'510.0
2017-Aug-20 09:01S 32°50' E 152°22'5 9.3
2017-Aug-20 08:31S 32°46' E 152°26'5 9.8
2017-Aug-20 08:01S 32°42' E 152°29'5 9.3
2017-Aug-20 07:31S 32°39' E 152°32'5 9.3
2017-Aug-20 07:01S 32°35' E 152°36'5 9.2
2017-Aug-20 06:30S 32°31' E 152°39'4 8.2
2017-Aug-20 05:57S 32°27' E 152°42'4 0.3
2017-Aug-19 14:35S 32°24' E 152°44'711.4
2017-Aug-19 14:00S 32°30' E 152°41'510.5
2017-Aug-19 13:30S 32°34' E 152°36'510.8
2017-Aug-19 13:00S 32°38' E 152°33'510.9
2017-Aug-19 12:31S 32°43' E 152°29'510.6
2017-Aug-19 12:00S 32°47' E 152°25'510.8
2017-Aug-19 11:31S 32°50' E 152°20'510.4
2017-Aug-19 11:01S 32°54' E 152°16'510.4
2017-Aug-19 10:30S 32°58' E 152°12'510.3
2017-Aug-19 10:01S 33°02' E 152°08'510.3
2017-Aug-19 09:30S 33°06' E 152°04'510.5
2017-Aug-19 09:00S 33°10' E 151°60'18 3.7
2017-Aug-19 04:12S 33°20' E 151°42'1 3.0
2017-Aug-19 04:00S 33°19' E 151°42'1 2.4
2017-Aug-19 03:28S 33°18' E 151°43'2 3.1
2017-Aug-19 02:57S 33°17' E 151°44'11 4.4
2017-Aug-19 00:29S 33°09' E 151°53'4 6.1
2017-Aug-18 23:52S 33°07' E 151°57'2 6.2
2017-Aug-18 23:29S 33°06' E 151°59'3 6.1
2017-Aug-18 23:00S 33°05' E 152°02'3 6.3
2017-Aug-18 22:31S 33°03' E 152°05'3 6.2
2017-Aug-18 22:00S 33°01' E 152°08'3 6.0
2017-Aug-18 21:31S 32°60' E 152°11'3 5.3
2017-Aug-18 21:00S 32°59' E 152°14'0 0.9
2017-Aug-18 20:31S 32°58' E 152°14'1 1.1
2017-Aug-18 20:01S 32°59' E 152°13'1 1.0
2017-Aug-18 19:30S 32°59' E 152°13'1 1.0
2017-Aug-18 19:00S 32°59' E 152°12'0 1.0
2017-Aug-18 18:31S 32°60' E 152°12'0 0.9
2017-Aug-18 18:01S 32°60' E 152°11'1 1.0
2017-Aug-18 17:30S 33°00' E 152°11'0 1.0
2017-Aug-18 17:00S 33°00' E 152°10'1 1.0
2017-Aug-18 16:30S 33°01' E 152°10'1 1.1
2017-Aug-18 16:00S 33°01' E 152°09'1 1.1
2017-Aug-18 15:31S 33°01' E 152°09'0 1.0
2017-Aug-18 15:01S 33°01' E 152°08'1 0.9
2017-Aug-18 14:01S 33°01' E 152°07'1 1.1
2017-Aug-18 13:30S 33°01' E 152°06'1 1.2
2017-Aug-18 13:01S 33°01' E 152°06'1 1.5
2017-Aug-18 12:31S 33°00' E 152°05'1 1.5
2017-Aug-18 12:01S 33°00' E 152°04'1 1.3
2017-Aug-18 11:31S 32°60' E 152°04'1 1.6
2017-Aug-18 11:01S 32°59' E 152°03'1 2.1
2017-Aug-18 10:30S 33°00' E 152°03'1 1.3
2017-Aug-18 10:00S 33°01' E 152°03'1 1.2
2017-Aug-18 09:31S 33°01' E 152°03'1 1.3
2017-Aug-18 09:00S 33°02' E 152°04'1 1.4
2017-Aug-18 08:30S 33°03' E 152°04'1 1.7
2017-Aug-18 08:00S 33°04' E 152°04'1 1.5
2017-Aug-18 07:31S 33°04' E 152°04'1 1.4
2017-Aug-18 07:01S 33°05' E 152°04'1 1.5
2017-Aug-18 06:30S 33°06' E 152°04'1 1.6
2017-Aug-18 06:01S 33°07' E 152°04'1 1.5
2017-Aug-18 05:30S 33°07' E 152°04'1 1.7
2017-Aug-18 05:01S 33°08' E 152°03'1 2.0
2017-Aug-18 04:31S 33°09' E 152°03'1 1.9
2017-Aug-18 04:00S 33°10' E 152°03'1 2.0
2017-Aug-18 03:31S 33°11' E 152°02'1 1.9
2017-Aug-18 03:01S 33°12' E 152°01'1 1.9
2017-Aug-18 02:29S 33°13' E 152°01'1 2.0
2017-Aug-18 01:50S 33°14' E 152°00'1 2.2
2017-Aug-18 01:30S 33°14' E 151°60'1 2.2
2017-Aug-18 00:59S 33°15' E 151°59'1 2.6
2017-Aug-18 00:30S 33°14' E 151°58'1 2.7
2017-Aug-18 00:01S 33°13' E 151°57'1 2.7
2017-Aug-17 23:31S 33°12' E 151°57'1 2.6
2017-Aug-17 23:01S 33°11' E 151°56'1 2.5
2017-Aug-17 22:31S 33°09' E 151°55'1 2.4
2017-Aug-17 22:01S 33°08' E 151°55'1 2.4
2017-Aug-17 21:31S 33°07' E 151°54'1 2.8
2017-Aug-17 21:00S 33°06' E 151°54'1 2.8
2017-Aug-17 20:30S 33°04' E 151°53'0 0.7
2017-Aug-17 20:01S 33°05' E 151°54'0 0.6
2017-Aug-17 19:31S 33°05' E 151°54'0 0.4
2017-Aug-17 19:00S 33°05' E 151°54'4 8.0
2017-Aug-17 18:30S 33°05' E 151°49'3 5.5
2017-Aug-17 18:00S 33°07' E 151°47'510.3
2017-Aug-17 17:30S 33°12' E 151°45'510.4
2017-Aug-17 17:00S 33°16' E 151°43'510.9
2017-Aug-17 16:30S 33°21' E 151°41'611.6
2017-Aug-17 16:00S 33°27' E 151°38'611.8
2017-Aug-17 15:30S 33°32' E 151°36'611.4
2017-Aug-17 15:00S 33°38' E 151°33'510.8
2017-Aug-17 14:30S 33°43' E 151°31'510.7
2017-Aug-17 14:01S 33°48' E 151°28'510.8
2017-Aug-17 13:30S 33°53' E 151°26'  
Track history (hours):
 
Tides and Currents Weather Stations Pressure Air Temp Water Temp Dewpoint Dewpoint Depression Visibility Wind Speed Wind Dir Waves Ship Positions

Sumaq Queen

Last reported at 2017-Aug-26 07:39 UTC. Time now 2017-Sep-24 10:45 UTC.
Position S 27°57' E 154°02'.
Warning: this ship's position is 29 days out of date.

Length 183 m; draft 11.1 m.

Type: Cargo ship. MMSI: 374593000.

Date/timePositionNaut miles runAvg speedWind from/ knotsBaromVisibWave heightAir tempDewpointWater temp
2017-Aug-26 07:39S 27°57' E 154°02'413.0
2017-Aug-26 07:22S 28°01' E 154°01'613.0
2017-Aug-26 06:56S 28°07' E 154°00'512.7
2017-Aug-26 06:30S 28°12' E 153°59'612.6
2017-Aug-26 06:00S 28°18' E 153°58'812.8
2017-Aug-26 05:21S 28°26' E 153°57'24712.7
2017-Aug-25 09:53S 32°25' E 152°44'612.8
2017-Aug-25 09:27S 32°30' E 152°42'512.5
2017-Aug-25 09:00S 32°34' E 152°37'612.3
2017-Aug-25 08:30S 32°38' E 152°32'612.2
2017-Aug-25 08:00S 32°42' E 152°26'611.8
2017-Aug-25 07:30S 32°45' E 152°20'611.8
2017-Aug-25 07:00S 32°49' E 152°15'611.6
2017-Aug-25 06:30S 32°52' E 152°09'611.7
2017-Aug-25 06:00S 32°55' E 152°03'510.6
2017-Aug-25 05:30S 32°58' E 151°58'510.3
2017-Aug-25 05:00S 32°57' E 151°52'4 7.6
2017-Aug-25 04:30S 32°55' E 151°48'2 3.3
2017-Aug-25 04:00S 32°54' E 151°46'0 0.1
2017-Aug-25 03:29S 32°54' E 151°46'0 0.0
2017-Aug-25 02:59S 32°54' E 151°46'0 0.0
2017-Aug-25 02:29S 32°54' E 151°46'0 0.0
2017-Aug-25 01:59S 32°54' E 151°46'0 0.0
2017-Aug-25 01:29S 32°54' E 151°46'0 0.0
2017-Aug-25 00:59S 32°54' E 151°46'0 0.0
2017-Aug-25 00:29S 32°54' E 151°46'0 0.0
2017-Aug-24 23:59S 32°54' E 151°46'0 0.0
2017-Aug-24 23:29S 32°54' E 151°46'0 0.0
2017-Aug-24 22:59S 32°54' E 151°46'0 0.0
2017-Aug-24 22:29S 32°54' E 151°46'0 0.0
2017-Aug-24 21:59S 32°54' E 151°46'0 0.0
2017-Aug-24 21:20S 32°54' E 151°46'0 0.0
2017-Aug-24 20:59S 32°54' E 151°46'0 0.0
2017-Aug-24 20:29S 32°54' E 151°46'0 0.0
2017-Aug-24 19:59S 32°54' E 151°46'0 0.0
2017-Aug-24 19:29S 32°54' E 151°46'0 0.0
2017-Aug-24 18:59S 32°54' E 151°46'0 0.0
2017-Aug-24 18:29S 32°54' E 151°46'0 0.0
2017-Aug-24 17:59S 32°54' E 151°46'0 0.0
2017-Aug-24 17:29S 32°54' E 151°46'0 0.0
2017-Aug-24 16:59S 32°54' E 151°46'0 0.0
2017-Aug-24 16:29S 32°54' E 151°46'0 0.0
2017-Aug-24 15:59S 32°54' E 151°46'0 0.0
2017-Aug-24 15:29S 32°54' E 151°46'0 0.0
2017-Aug-24 14:59S 32°54' E 151°46'0 0.0
2017-Aug-24 14:29S 32°54' E 151°46'0 0.0
2017-Aug-24 13:59S 32°54' E 151°46'0 0.0
2017-Aug-24 13:29S 32°54' E 151°46'0 0.0
2017-Aug-24 12:59S 32°54' E 151°46'0 0.0
2017-Aug-24 12:26S 32°54' E 151°46'0 0.0
2017-Aug-24 11:56S 32°54' E 151°46'0 0.0
2017-Aug-24 11:29S 32°54' E 151°46'0 0.0
2017-Aug-24 10:53S 32°54' E 151°46'0 0.0
2017-Aug-24 10:29S 32°54' E 151°46'0 0.0
2017-Aug-24 09:53S 32°54' E 151°46'0 0.0
2017-Aug-24 09:23S 32°54' E 151°46'0 0.0
2017-Aug-24 08:59S 32°54' E 151°46'0 0.0
2017-Aug-24 08:29S 32°54' E 151°46'0 0.0
2017-Aug-24 07:56S 32°54' E 151°46'0 0.0
2017-Aug-24 07:29S 32°54' E 151°46'0 0.0
2017-Aug-24 06:59S 32°54' E 151°46'0 0.0
2017-Aug-24 06:29S 32°54' E 151°46'0 0.0
2017-Aug-24 05:59S 32°54' E 151°46'0 0.0
2017-Aug-24 05:29S 32°54' E 151°46'0 0.0
2017-Aug-24 04:59S 32°54' E 151°46'0 0.0
2017-Aug-24 04:26S 32°54' E 151°46'0 0.0
2017-Aug-24 03:59S 32°54' E 151°46'0 0.0
2017-Aug-24 03:29S 32°54' E 151°46'0 0.0
2017-Aug-24 02:59S 32°54' E 151°46'0 0.0
2017-Aug-24 02:29S 32°54' E 151°46'0 0.0
2017-Aug-24 01:59S 32°54' E 151°46'0 0.0
2017-Aug-24 01:29S 32°54' E 151°46'0 0.0
2017-Aug-24 00:53S 32°54' E 151°46'0 0.0
2017-Aug-24 00:30S 32°54' E 151°46'0 0.3
2017-Aug-24 00:00S 32°54' E 151°46'2 4.6
2017-Aug-23 23:30S 32°55' E 151°49'5 9.6
2017-Aug-23 23:00S 32°59' E 151°52'3 5.5
2017-Aug-23 22:30S 33°01' E 151°52'3 5.5
2017-Aug-23 22:00S 33°04' E 151°52'2 4.4
2017-Aug-23 21:30S 33°05' E 151°49'2 4.8
2017-Aug-23 21:00S 33°06' E 151°47'2 3.9
2017-Aug-23 20:30S 33°06' E 151°44'0 0.7
2017-Aug-23 19:56S 33°06' E 151°44'0 0.0
2017-Aug-23 15:14S 33°07' E 151°44'0 0.0
2017-Aug-23 05:50S 33°07' E 151°44'0 0.0
2017-Aug-22 23:38S 33°07' E 151°44'0 0.0
2017-Aug-22 22:11S 33°07' E 151°44'0 0.0
2017-Aug-22 21:53S 33°07' E 151°44'0 0.0
2017-Aug-22 21:29S 33°07' E 151°44'0 0.0
2017-Aug-22 20:59S 33°07' E 151°44'0 0.0
2017-Aug-22 20:26S 33°07' E 151°44'0 0.0
2017-Aug-22 17:47S 33°07' E 151°44'0 0.0
2017-Aug-22 17:26S 33°07' E 151°44'0 0.0
2017-Aug-22 16:53S 33°07' E 151°44'0 0.0
2017-Aug-22 16:23S 33°07' E 151°44'0 0.0
2017-Aug-22 00:14S 33°06' E 151°44'0 0.0
2017-Aug-21 23:53S 33°06' E 151°44'0 0.0
2017-Aug-21 23:11S 33°06' E 151°44'0 0.0
2017-Aug-21 22:56S 33°06' E 151°44'0 0.1
2017-Aug-21 22:23S 33°06' E 151°44'0 0.0
2017-Aug-21 21:47S 33°06' E 151°44'0 0.0
2017-Aug-21 21:29S 33°06' E 151°44'0 0.0
2017-Aug-21 20:53S 33°06' E 151°44'0 0.0
2017-Aug-21 20:26S 33°06' E 151°44'0 0.0
2017-Aug-21 19:59S 33°06' E 151°44'0 0.0
2017-Aug-21 19:29S 33°06' E 151°44'0 0.0
2017-Aug-21 18:59S 33°06' E 151°44'0 0.0
2017-Aug-21 18:29S 33°06' E 151°44'0 0.1
2017-Aug-21 17:56S 33°06' E 151°44'0 0.1
2017-Aug-21 17:23S 33°06' E 151°44'0 0.0
2017-Aug-21 16:59S 33°06' E 151°44'0 0.0
2017-Aug-21 16:29S 33°06' E 151°44'0 0.1
2017-Aug-21 15:59S 33°06' E 151°44'0 0.0
2017-Aug-21 15:29S 33°06' E 151°44'0 0.0
2017-Aug-21 14:59S 33°06' E 151°44'0 0.1
2017-Aug-21 14:29S 33°06' E 151°44'0 0.1
2017-Aug-21 13:59S 33°06' E 151°44'0 0.0
2017-Aug-21 13:29S 33°06' E 151°44'0 0.0
2017-Aug-21 12:59S 33°07' E 151°44'0 0.0
2017-Aug-21 12:29S 33°07' E 151°44'0 0.0
2017-Aug-21 11:59S 33°07' E 151°44'0 0.0
2017-Aug-21 11:29S 33°07' E 151°44'0 0.0
2017-Aug-21 10:59S 33°07' E 151°44'0 0.0
2017-Aug-21 10:29S 33°07' E 151°44'0 0.0
2017-Aug-21 09:59S 33°07' E 151°44'0 0.0
2017-Aug-21 09:29S 33°07' E 151°44'0 0.0
2017-Aug-21 08:59S 33°07' E 151°44'0 0.0
2017-Aug-21 05:26S 33°07' E 151°44'0 0.0
2017-Aug-21 04:02S 33°06' E 151°44'0 0.0
2017-Aug-21 03:59S 33°06' E 151°44'0 0.0
2017-Aug-21 03:26S 33°06' E 151°44'1 0.7
2017-Aug-21 01:44S 33°06' E 151°45'2 5.8
2017-Aug-21 01:28S 33°05' E 151°47'3 5.8
2017-Aug-21 01:01S 33°03' E 151°49'2 3.5
2017-Aug-21 00:31S 33°02' E 151°50'4 8.5
2017-Aug-21 00:00S 33°02' E 151°55'5 9.6
2017-Aug-20 23:31S 33°03' E 152°01'1 1.7
2017-Aug-20 23:00S 33°02' E 152°02'1 1.9
2017-Aug-20 22:31S 33°02' E 152°03'1 2.0
2017-Aug-20 22:01S 33°02' E 152°04'1 1.8
2017-Aug-20 21:31S 33°02' E 152°05'1 1.8
2017-Aug-20 21:00S 33°02' E 152°06'1 1.7
2017-Aug-20 20:31S 33°02' E 152°07'1 1.9
2017-Aug-20 20:01S 33°02' E 152°08'3 6.0
2017-Aug-20 19:31S 32°59' E 152°10'4 8.0
2017-Aug-20 19:00S 32°56' E 152°13'0 0.9
2017-Aug-20 18:31S 32°56' E 152°13'0 1.0
2017-Aug-20 18:00S 32°56' E 152°14'0 0.9
2017-Aug-20 17:30S 32°56' E 152°14'0 0.8
2017-Aug-20 17:01S 32°56' E 152°15'0 1.0
2017-Aug-20 16:31S 32°57' E 152°15'0 0.9
2017-Aug-20 16:00S 32°57' E 152°16'0 0.8
2017-Aug-20 15:30S 32°57' E 152°16'0 0.9
2017-Aug-20 15:01S 32°57' E 152°17'1 1.3
2017-Aug-20 14:31S 32°58' E 152°17'0 1.0
2017-Aug-20 14:01S 32°58' E 152°16'1 1.0
2017-Aug-20 13:31S 32°59' E 152°16'1 1.1
2017-Aug-20 13:01S 32°60' E 152°16'1 1.1
2017-Aug-20 12:31S 33°00' E 152°16'1 1.1
2017-Aug-20 12:01S 33°01' E 152°16'1 1.2
2017-Aug-20 11:31S 33°01' E 152°16'1 1.1
2017-Aug-20 11:01S 33°02' E 152°16'2 3.1
2017-Aug-20 10:30S 33°02' E 152°14'3 6.9
2017-Aug-20 10:01S 32°58' E 152°15'510.1
2017-Aug-20 09:31S 32°54' E 152°19'510.0
2017-Aug-20 09:01S 32°50' E 152°22'5 9.3
2017-Aug-20 08:31S 32°46' E 152°26'5 9.8
2017-Aug-20 08:01S 32°42' E 152°29'5 9.3
2017-Aug-20 07:31S 32°39' E 152°32'5 9.3
2017-Aug-20 07:01S 32°35' E 152°36'5 9.2
2017-Aug-20 06:30S 32°31' E 152°39'4 8.2
2017-Aug-20 05:57S 32°27' E 152°42'4 0.3
2017-Aug-19 14:35S 32°24' E 152°44'711.4
2017-Aug-19 14:00S 32°30' E 152°41'510.5
2017-Aug-19 13:30S 32°34' E 152°36'510.8
2017-Aug-19 13:00S 32°38' E 152°33'510.9
2017-Aug-19 12:31S 32°43' E 152°29'510.6
2017-Aug-19 12:00S 32°47' E 152°25'510.8
2017-Aug-19 11:31S 32°50' E 152°20'510.4
2017-Aug-19 11:01S 32°54' E 152°16'510.4
2017-Aug-19 10:30S 32°58' E 152°12'510.3
2017-Aug-19 10:01S 33°02' E 152°08'510.3
2017-Aug-19 09:30S 33°06' E 152°04'510.5
2017-Aug-19 09:00S 33°10' E 151°60'18 3.7
2017-Aug-19 04:12S 33°20' E 151°42'1 3.0
2017-Aug-19 04:00S 33°19' E 151°42'1 2.4
2017-Aug-19 03:28S 33°18' E 151°43'2 3.1
2017-Aug-19 02:57S 33°17' E 151°44'11 4.4
2017-Aug-19 00:29S 33°09' E 151°53'4 6.1
2017-Aug-18 23:52S 33°07' E 151°57'2 6.2
2017-Aug-18 23:29S 33°06' E 151°59'3 6.1
2017-Aug-18 23:00S 33°05' E 152°02'3 6.3
2017-Aug-18 22:31S 33°03' E 152°05'3 6.2
2017-Aug-18 22:00S 33°01' E 152°08'3 6.0
2017-Aug-18 21:31S 32°60' E 152°11'3 5.3
2017-Aug-18 21:00S 32°59' E 152°14'0 0.9
2017-Aug-18 20:31S 32°58' E 152°14'1 1.1
2017-Aug-18 20:01S 32°59' E 152°13'1 1.0
2017-Aug-18 19:30S 32°59' E 152°13'1 1.0
2017-Aug-18 19:00S 32°59' E 152°12'0 1.0
2017-Aug-18 18:31S 32°60' E 152°12'0 0.9
2017-Aug-18 18:01S 32°60' E 152°11'1 1.0
2017-Aug-18 17:30S 33°00' E 152°11'0 1.0
2017-Aug-18 17:00S 33°00' E 152°10'1 1.0
2017-Aug-18 16:30S 33°01' E 152°10'1 1.1
2017-Aug-18 16:00S 33°01' E 152°09'1 1.1
2017-Aug-18 15:31S 33°01' E 152°09'0 1.0
2017-Aug-18 15:01S 33°01' E 152°08'1 0.9
2017-Aug-18 14:01S 33°01' E 152°07'1 1.1
2017-Aug-18 13:30S 33°01' E 152°06'1 1.2
2017-Aug-18 13:01S 33°01' E 152°06'1 1.5
2017-Aug-18 12:31S 33°00' E 152°05'1 1.5
2017-Aug-18 12:01S 33°00' E 152°04'1 1.3
2017-Aug-18 11:31S 32°60' E 152°04'1 1.6
2017-Aug-18 11:01S 32°59' E 152°03'1 2.1
2017-Aug-18 10:30S 33°00' E 152°03'1 1.3
2017-Aug-18 10:00S 33°01' E 152°03'1 1.2
2017-Aug-18 09:31S 33°01' E 152°03'1 1.3
2017-Aug-18 09:00S 33°02' E 152°04'1 1.4
2017-Aug-18 08:30S 33°03' E 152°04'1 1.7
2017-Aug-18 08:00S 33°04' E 152°04'1 1.5
2017-Aug-18 07:31S 33°04' E 152°04'1 1.4
2017-Aug-18 07:01S 33°05' E 152°04'1 1.5
2017-Aug-18 06:30S 33°06' E 152°04'1 1.6
2017-Aug-18 06:01S 33°07' E 152°04'1 1.5
2017-Aug-18 05:30S 33°07' E 152°04'1 1.7
2017-Aug-18 05:01S 33°08' E 152°03'1 2.0
2017-Aug-18 04:31S 33°09' E 152°03'1 1.9
2017-Aug-18 04:00S 33°10' E 152°03'1 2.0
2017-Aug-18 03:31S 33°11' E 152°02'1 1.9
2017-Aug-18 03:01S 33°12' E 152°01'1 1.9
2017-Aug-18 02:29S 33°13' E 152°01'1 2.0
2017-Aug-18 01:50S 33°14' E 152°00'1 2.2
2017-Aug-18 01:30S 33°14' E 151°60'1 2.2
2017-Aug-18 00:59S 33°15' E 151°59'1 2.6
2017-Aug-18 00:30S 33°14' E 151°58'1 2.7
2017-Aug-18 00:01S 33°13' E 151°57'1 2.7
2017-Aug-17 23:31S 33°12' E 151°57'1 2.6
2017-Aug-17 23:01S 33°11' E 151°56'1 2.5
2017-Aug-17 22:31S 33°09' E 151°55'1 2.4
2017-Aug-17 22:01S 33°08' E 151°55'1 2.4
2017-Aug-17 21:31S 33°07' E 151°54'1 2.8
2017-Aug-17 21:00S 33°06' E 151°54'1 2.8
2017-Aug-17 20:30S 33°04' E 151°53'0 0.7
2017-Aug-17 20:01S 33°05' E 151°54'0 0.6
2017-Aug-17 19:31S 33°05' E 151°54'0 0.4
2017-Aug-17 19:00S 33°05' E 151°54'4 8.0
2017-Aug-17 18:30S 33°05' E 151°49'3 5.5
2017-Aug-17 18:00S 33°07' E 151°47'510.3
2017-Aug-17 17:30S 33°12' E 151°45'510.4
2017-Aug-17 17:00S 33°16' E 151°43'510.9
2017-Aug-17 16:30S 33°21' E 151°41'611.6
2017-Aug-17 16:00S 33°27' E 151°38'611.8
2017-Aug-17 15:30S 33°32' E 151°36'611.4
2017-Aug-17 15:00S 33°38' E 151°33'510.8
2017-Aug-17 14:30S 33°43' E 151°31'510.7
2017-Aug-17 14:01S 33°48' E 151°28'510.8
2017-Aug-17 13:30S 33°53' E 151°26'  

Dump ship's entire track history